Kt.kresna.315 — YD5242 — position and weather

sailwx.info

Track history (hours):
 
Tides and Currents Weather Stations Pressure Air Temp Water Temp Dewpoint Dewpoint Depression Visibility Wind Speed Wind Dir Waves Ship Positions

Kt.kresna.315

Last reported at 2018-Aug-14 23:24 UTC. Time now 2018-Aug-14 23:41 UTC.
Position S 07°09' E 112°40'.

; draft 3 m.

Type: Tug. MMSI: 525023379.

Date/timePositionNaut miles runAvg speedWind from/ knotsBaromVisibWave heightAir tempDewpointWater temp
2018-Aug-14 23:24S 07°09' E 112°40'0 0.1
2018-Aug-14 22:49S 07°09' E 112°40'0 0.0
2018-Aug-14 22:23S 07°09' E 112°40'0 0.1
2018-Aug-14 21:59S 07°09' E 112°40'0 0.0
2018-Aug-14 21:28S 07°09' E 112°40'1 2.5
2018-Aug-14 21:00S 07°08' E 112°39'1 1.7
2018-Aug-14 20:30S 07°07' E 112°39'1 1.7
2018-Aug-14 19:44S 07°06' E 112°39'1 2.5
2018-Aug-14 19:26S 07°05' E 112°39'2 4.0
2018-Aug-14 19:00S 07°07' E 112°39'2 3.9
2018-Aug-14 18:26S 07°09' E 112°40'0 0.0
2018-Aug-14 17:59S 07°09' E 112°40'0 0.0
2018-Aug-14 17:28S 07°09' E 112°40'0 0.0
2018-Aug-14 16:59S 07°09' E 112°40'0 0.0
2018-Aug-14 16:29S 07°09' E 112°40'0 0.0
2018-Aug-14 15:56S 07°09' E 112°40'1 1.0
2018-Aug-14 15:23S 07°09' E 112°40'0 0.9
2018-Aug-14 14:52S 07°08' E 112°40'0 1.2
2018-Aug-14 14:27S 07°08' E 112°39'3 5.9
2018-Aug-14 14:00S 07°10' E 112°41'4 7.0
2018-Aug-14 13:29S 07°12' E 112°43'0 0.4
2018-Aug-14 12:55S 07°12' E 112°43'0 0.0
2018-Aug-14 12:30S 07°12' E 112°43'0 0.0
2018-Aug-14 12:00S 07°12' E 112°43'1 1.7
2018-Aug-14 11:29S 07°12' E 112°43'3 6.9
2018-Aug-14 11:00S 07°10' E 112°40'2 3.2
2018-Aug-14 10:30S 07°08' E 112°39'0 0.4
2018-Aug-14 10:00S 07°08' E 112°39'1 2.0
2018-Aug-14 09:29S 07°07' E 112°40'2 4.5
2018-Aug-14 09:00S 07°09' E 112°40'0 0.0
2018-Aug-14 08:30S 07°09' E 112°40'0 0.0
2018-Aug-14 07:57S 07°09' E 112°40'0 0.0
2018-Aug-14 07:29S 07°09' E 112°40'0 0.0
2018-Aug-14 07:00S 07°09' E 112°40'0 0.0
2018-Aug-14 06:30S 07°09' E 112°40'0 0.0
2018-Aug-14 05:56S 07°09' E 112°40'0 0.0
2018-Aug-14 05:30S 07°09' E 112°40'0 0.0
2018-Aug-14 04:56S 07°09' E 112°40'1 1.3
2018-Aug-14 04:28S 07°10' E 112°40'0 0.9
2018-Aug-14 03:59S 07°10' E 112°40'1 1.9
2018-Aug-14 03:27S 07°09' E 112°40'0 0.0
2018-Aug-14 03:00S 07°09' E 112°40'1 3.0
2018-Aug-14 02:30S 07°08' E 112°39'0 0.2
2018-Aug-14 01:59S 07°08' E 112°39'1 0.1
2018-Aug-13 18:25S 07°07' E 112°39'1 1.9
2018-Aug-13 17:58S 07°07' E 112°39'0 0.0
2018-Aug-13 17:30S 07°07' E 112°39'0 0.0
2018-Aug-13 17:00S 07°07' E 112°39'2 4.6
2018-Aug-13 16:30S 07°09' E 112°40'0 0.8
2018-Aug-13 15:59S 07°09' E 112°40'0 0.0
2018-Aug-13 15:30S 07°09' E 112°40'0 0.0
2018-Aug-13 14:59S 07°09' E 112°40'0 0.0
2018-Aug-13 14:30S 07°09' E 112°40'0 0.0
2018-Aug-13 14:00S 07°09' E 112°40'0 0.0
2018-Aug-13 13:29S 07°09' E 112°40'0 0.0
2018-Aug-13 13:00S 07°09' E 112°40'0 0.0
2018-Aug-13 12:29S 07°09' E 112°40'0 0.0
2018-Aug-13 12:00S 07°09' E 112°40'0 0.0
2018-Aug-13 11:30S 07°09' E 112°40'0 0.0
2018-Aug-13 11:00S 07°09' E 112°40'0 0.0
2018-Aug-13 10:30S 07°09' E 112°40'0 0.0
2018-Aug-13 10:00S 07°09' E 112°40'0 0.0
2018-Aug-13 09:29S 07°09' E 112°40'0 0.4
2018-Aug-13 08:55S 07°09' E 112°40'1 3.0
2018-Aug-13 08:28S 07°08' E 112°40'2 3.3
2018-Aug-13 07:58S 07°09' E 112°40'0 0.0
2018-Aug-13 07:29S 07°09' E 112°40'0 0.0
2018-Aug-13 06:59S 07°09' E 112°40'0 0.0
2018-Aug-13 06:30S 07°09' E 112°40'0 0.0
2018-Aug-13 05:59S 07°09' E 112°40'0 0.3
2018-Aug-13 05:29S 07°09' E 112°40'0 0.3
2018-Aug-13 05:00S 07°09' E 112°40'0 0.4
2018-Aug-13 04:28S 07°09' E 112°40'0 0.5
2018-Aug-13 03:50S 07°09' E 112°40'0 0.0
2018-Aug-13 03:29S 07°09' E 112°40'0 0.0
2018-Aug-13 03:00S 07°09' E 112°40'0 0.0
2018-Aug-13 02:30S 07°09' E 112°40'0 0.0
2018-Aug-13 01:56S 07°09' E 112°40'0 0.0
2018-Aug-13 01:25S 07°09' E 112°40'0 0.2
2018-Aug-13 00:58S 07°09' E 112°40'0 0.2
2018-Aug-13 00:30S 07°09' E 112°40'0 0.0
2018-Aug-12 23:59S 07°09' E 112°40'0 0.0
2018-Aug-12 23:29S 07°09' E 112°40'0 0.0
2018-Aug-12 22:58S 07°09' E 112°40'0 0.0
2018-Aug-12 22:28S 07°09' E 112°40'0 0.0
2018-Aug-12 21:57S 07°09' E 112°40'0 0.0
2018-Aug-12 21:30S 07°09' E 112°40'0 0.0
2018-Aug-12 20:58S 07°09' E 112°40'0 0.0
2018-Aug-12 20:27S 07°09' E 112°40'0 0.0
2018-Aug-12 19:57S 07°09' E 112°40'0 0.0
2018-Aug-12 19:28S 07°09' E 112°40'0 0.0
2018-Aug-12 18:59S 07°09' E 112°40'0 0.0
2018-Aug-12 18:29S 07°09' E 112°40'0 0.0
2018-Aug-12 17:58S 07°09' E 112°40'0 0.0
2018-Aug-12 17:29S 07°09' E 112°40'0 0.0
2018-Aug-12 16:53S 07°09' E 112°40'0 0.0
2018-Aug-12 16:30S 07°09' E 112°40'0 0.0
2018-Aug-12 16:00S 07°09' E 112°40'0 0.0
2018-Aug-12 15:29S 07°09' E 112°40'0 0.0
2018-Aug-12 14:59S 07°09' E 112°40'0 0.0
2018-Aug-12 14:27S 07°09' E 112°40'0 0.0
2018-Aug-12 14:00S 07°09' E 112°40'0 0.0
2018-Aug-12 13:30S 07°09' E 112°40'0 0.0
2018-Aug-12 12:59S 07°09' E 112°40'0 0.0
2018-Aug-12 12:29S 07°09' E 112°40'0 0.0
2018-Aug-12 12:00S 07°09' E 112°40'0 0.0
2018-Aug-12 11:28S 07°09' E 112°40'0 0.0
2018-Aug-12 10:44S 07°09' E 112°40'0 0.0
2018-Aug-12 10:13S 07°09' E 112°40'0 0.0
2018-Aug-12 09:59S 07°09' E 112°40'0 0.0
2018-Aug-12 09:26S 07°09' E 112°40'0 0.0
2018-Aug-12 08:58S 07°09' E 112°40'0 0.0
2018-Aug-12 08:30S 07°09' E 112°40'0 0.0
2018-Aug-12 08:00S 07°09' E 112°40'0 0.0
2018-Aug-12 07:30S 07°09' E 112°40'0 0.0
2018-Aug-12 07:00S 07°09' E 112°40'0 0.0
2018-Aug-12 06:28S 07°09' E 112°40'0 0.0
2018-Aug-12 05:59S 07°09' E 112°40'0 0.0
2018-Aug-12 05:30S 07°09' E 112°40'0 0.6
2018-Aug-12 04:59S 07°09' E 112°40'2 4.9
2018-Aug-12 04:30S 07°07' E 112°39'0 0.9
2018-Aug-12 03:58S 07°07' E 112°39'2 4.9
2018-Aug-12 03:29S 07°09' E 112°40'0 0.4
2018-Aug-12 03:00S 07°09' E 112°40'0 0.0
2018-Aug-12 02:29S 07°09' E 112°40'0 0.0
2018-Aug-12 02:00S 07°09' E 112°40'0 0.6
2018-Aug-12 01:29S 07°09' E 112°40'0 0.4
2018-Aug-12 00:59S 07°09' E 112°40'0 0.0
2018-Aug-12 00:30S 07°09' E 112°40'0 0.0
2018-Aug-11 23:57S 07°09' E 112°40'0 0.0
2018-Aug-11 23:30S 07°09' E 112°40'0 0.0
2018-Aug-11 22:50S 07°09' E 112°40'0 0.0
2018-Aug-11 22:30S 07°09' E 112°40'0 0.0
2018-Aug-11 21:59S 07°09' E 112°40'0 0.0
2018-Aug-11 21:23S 07°09' E 112°40'0 0.0
2018-Aug-11 21:00S 07°09' E 112°40'0 0.0
2018-Aug-11 20:26S 07°09' E 112°40'0 0.0
2018-Aug-11 19:56S 07°09' E 112°40'0 0.0
2018-Aug-11 19:22S 07°09' E 112°40'0 0.0
2018-Aug-11 18:51S 07°09' E 112°40'0 0.0
2018-Aug-11 18:10S 07°09' E 112°40'0 0.3
2018-Aug-11 17:56S 07°09' E 112°40'0 0.1
2018-Aug-11 17:21S 07°09' E 112°40'0 0.0
2018-Aug-11 16:57S 07°09' E 112°40'0 0.0
2018-Aug-11 16:21S 07°09' E 112°40'0 0.0
2018-Aug-11 15:57S 07°09' E 112°40'0 0.0
2018-Aug-11 15:28S 07°09' E 112°40'0 0.0
2018-Aug-11 14:58S 07°09' E 112°40'0 0.0
2018-Aug-11 14:30S 07°09' E 112°40'0 0.0
2018-Aug-11 14:00S 07°09' E 112°40'0 0.0
2018-Aug-11 13:28S 07°09' E 112°40'0 0.0
2018-Aug-11 13:00S 07°09' E 112°40'0 0.0
2018-Aug-11 12:29S 07°09' E 112°40'0 0.0
2018-Aug-11 11:59S 07°09' E 112°40'0 0.0
2018-Aug-11 11:26S 07°09' E 112°40'0 0.0
2018-Aug-11 10:57S 07°09' E 112°40'0 0.0
2018-Aug-11 10:18S 07°09' E 112°40'2 2.0
2018-Aug-11 09:03S 07°07' E 112°39'0 0.0
2018-Aug-11 08:59S 07°07' E 112°39'2 5.2
2018-Aug-11 08:30S 07°09' E 112°40'0 0.0
2018-Aug-11 03:46S 07°09' E 112°40'0 0.0
2018-Aug-11 02:41S 07°09' E 112°40'0 0.0
2018-Aug-11 02:25S 07°09' E 112°40'0 0.0
2018-Aug-11 01:57S 07°09' E 112°40'0 0.0
2018-Aug-11 01:29S 07°09' E 112°40'0 0.0
2018-Aug-11 00:57S 07°09' E 112°40'0 0.0
2018-Aug-11 00:28S 07°09' E 112°40'0 0.0
2018-Aug-10 23:15S 07°09' E 112°40'0 0.0
2018-Aug-10 22:55S 07°09' E 112°40'0 0.0
2018-Aug-10 22:15S 07°09' E 112°40'0 0.0
2018-Aug-10 22:00S 07°09' E 112°40'0 0.0
2018-Aug-10 21:30S 07°09' E 112°40'0 0.0
2018-Aug-10 20:55S 07°09' E 112°40'1 1.8
2018-Aug-10 20:27S 07°08' E 112°40'2 4.1
2018-Aug-10 19:58S 07°07' E 112°39'3 4.9
2018-Aug-10 19:25S 07°09' E 112°40'0 0.0
2018-Aug-10 18:59S 07°09' E 112°40'0 0.0
2018-Aug-10 17:39S 07°09' E 112°40'0 0.0
2018-Aug-10 17:23S 07°09' E 112°40'0 0.0
2018-Aug-10 16:59S 07°09' E 112°40'1 1.3
2018-Aug-10 16:26S 07°09' E 112°40'2 4.1
2018-Aug-10 15:55S 07°07' E 112°39'1 1.9
2018-Aug-10 15:30S 07°07' E 112°39'2 3.0
2018-Aug-10 14:51S 07°09' E 112°40'0 0.0
2018-Aug-10 14:25S 07°09' E 112°40'0 0.0
2018-Aug-10 13:53S 07°09' E 112°40'0 0.0
2018-Aug-10 13:30S 07°09' E 112°40'0 0.0
2018-Aug-10 12:57S 07°09' E 112°40'0 0.0
2018-Aug-10 12:30S 07°09' E 112°40'0 0.0
2018-Aug-10 11:56S 07°09' E 112°40'0 0.0
2018-Aug-10 11:26S 07°09' E 112°40'0 0.0
2018-Aug-10 10:59S 07°09' E 112°40'0 0.0
2018-Aug-10 10:29S 07°09' E 112°40'0 0.0
2018-Aug-10 10:00S 07°09' E 112°40'2 3.6
2018-Aug-10 09:29S 07°07' E 112°39'0 0.3
2018-Aug-10 08:52S 07°08' E 112°39'0 1.0
2018-Aug-10 08:28S 07°08' E 112°39'0 0.6
2018-Aug-10 07:59S 07°08' E 112°39'2 2.0
2018-Aug-10 07:08S 07°06' E 112°39'1 9.4
2018-Aug-10 06:59S 07°07' E 112°39'2 3.4
2018-Aug-10 06:22S 07°09' E 112°40'0 1.0
2018-Aug-10 06:00S 07°09' E 112°40'0 0.6
2018-Aug-10 05:28S 07°09' E 112°40'0 0.0
2018-Aug-10 04:57S 07°09' E 112°40'0 0.0
2018-Aug-10 04:28S 07°09' E 112°40'4 5.0
2018-Aug-10 03:44S 07°06' E 112°39'1 2.0
2018-Aug-10 03:11S 07°07' E 112°39'1 2.0
2018-Aug-10 02:46S 07°08' E 112°39'2 5.7
2018-Aug-10 02:28S 07°09' E 112°40'0 0.3
2018-Aug-10 01:58S 07°09' E 112°40'0 0.4
2018-Aug-10 01:24S 07°09' E 112°40'0 0.0
2018-Aug-10 01:00S 07°09' E 112°40'0 0.0
2018-Aug-10 00:30S 07°09' E 112°40'0 0.0
2018-Aug-09 23:59S 07°09' E 112°40'0 0.0
2018-Aug-09 23:29S 07°09' E 112°40'0 0.0
2018-Aug-09 22:59S 07°09' E 112°40'0 0.9
2018-Aug-09 22:28S 07°09' E 112°40'0 1.0
2018-Aug-09 22:00S 07°09' E 112°40'0 0.0
2018-Aug-09 21:26S 07°09' E 112°40'0 0.0
2018-Aug-09 20:56S 07°09' E 112°40'0 0.0
2018-Aug-09 20:21S 07°09' E 112°40'0 0.0
2018-Aug-09 20:00S 07°09' E 112°40'0 0.0
2018-Aug-09 19:29S 07°09' E 112°40'0 0.0
2018-Aug-09 19:00S 07°09' E 112°40'0 0.0
2018-Aug-09 18:30S 07°09' E 112°40'0 0.0
2018-Aug-09 17:51S 07°09' E 112°40'0 0.0
2018-Aug-09 17:30S 07°09' E 112°40'0 0.0
2018-Aug-09 17:00S 07°09' E 112°40'0 0.0
2018-Aug-09 16:30S 07°09' E 112°40'0 0.0
2018-Aug-09 15:59S 07°09' E 112°40'0 0.0
2018-Aug-09 15:30S 07°09' E 112°40'0 0.0
2018-Aug-09 15:00S 07°09' E 112°40'0 0.0
2018-Aug-09 14:29S 07°09' E 112°40'0 0.0
2018-Aug-09 14:00S 07°09' E 112°40'0 0.1
2018-Aug-09 13:29S 07°09' E 112°40'1 2.3
2018-Aug-09 13:00S 07°08' E 112°39'0 0.4
2018-Aug-09 12:29S 07°08' E 112°40'1 1.9
2018-Aug-09 12:00S 07°09' E 112°40'0 0.0
2018-Aug-09 11:24S 07°09' E 112°40'0 0.0
2018-Aug-09 10:58S 07°09' E 112°40'0 0.0
2018-Aug-09 10:27S 07°09' E 112°40'0 0.0
2018-Aug-09 10:00S 07°09' E 112°40'0 0.0
2018-Aug-09 09:30S 07°09' E 112°40'0 0.0
2018-Aug-09 08:56S 07°09' E 112°40'0 0.0
2018-Aug-09 08:30S 07°09' E 112°40'0 0.0
2018-Aug-09 07:59S 07°09' E 112°40'0 0.0
2018-Aug-09 07:29S 07°09' E 112°40'0 0.0
2018-Aug-09 06:57S 07°09' E 112°40'1 1.1
2018-Aug-09 06:29S 07°10' E 112°40'3 6.8
2018-Aug-09 05:59S 07°12' E 112°43'1 1.6
2018-Aug-09 05:27S 07°12' E 112°43'0 0.0
2018-Aug-09 04:56S 07°12' E 112°43'0 0.0
2018-Aug-09 04:26S 07°12' E 112°43'0 0.0
2018-Aug-09 03:54S 07°12' E 112°43'0 0.0
2018-Aug-09 03:25S 07°12' E 112°43'0 0.2
2018-Aug-09 02:59S 07°12' E 112°44'2 5.0
2018-Aug-09 02:30S 07°11' E 112°41'3 5.3
2018-Aug-09 01:57S 07°09' E 112°40'2 4.6
2018-Aug-09 01:30S 07°07' E 112°39'1 1.2
2018-Aug-09 00:55S 07°06' E 112°39'1 2.7
2018-Aug-09 00:29S 07°07' E 112°39'2 4.1
2018-Aug-08 23:59S 07°09' E 112°40'0 0.0
2018-Aug-08 23:27S 07°09' E 112°40'0 0.0
2018-Aug-08 23:00S 07°09' E 112°40'0 0.0
2018-Aug-08 22:28S 07°09' E 112°40'0 0.0
2018-Aug-08 21:58S 07°09' E 112°40'0 0.0
2018-Aug-08 21:29S 07°09' E 112°40'0 0.0
2018-Aug-08 21:00S 07°09' E 112°40'0 0.0
2018-Aug-08 20:30S 07°09' E 112°40'0 0.0
2018-Aug-08 20:00S 07°09' E 112°40'0 0.0
2018-Aug-08 19:30S 07°09' E 112°40'0 0.0
2018-Aug-08 19:00S 07°09' E 112°40'0 0.0
2018-Aug-08 18:29S 07°09' E 112°40'0 0.0
2018-Aug-08 17:53S 07°09' E 112°40'0 0.0
2018-Aug-08 17:30S 07°09' E 112°40'0 0.0
2018-Aug-08 17:00S 07°09' E 112°40'0 0.0
2018-Aug-08 16:20S 07°09' E 112°40'0 0.0
2018-Aug-08 16:00S 07°09' E 112°40'0 0.0
2018-Aug-08 15:21S 07°09' E 112°40'0 0.0
2018-Aug-08 14:53S 07°09' E 112°40'0 0.0
2018-Aug-08 14:27S 07°09' E 112°40'0 0.0
2018-Aug-08 13:59S 07°09' E 112°40'0 0.0
2018-Aug-08 13:29S 07°09' E 112°40'0 0.0
2018-Aug-08 13:00S 07°09' E 112°40'0 0.2
2018-Aug-08 12:29S 07°09' E 112°40'1 1.9
2018-Aug-08 12:00S 07°08' E 112°39'1 1.7
2018-Aug-08 11:27S 07°09' E 112°40'0 0.0
2018-Aug-08 10:59S 07°09' E 112°40'0 0.0
2018-Aug-08 10:30S 07°09' E 112°40'0 0.0
2018-Aug-08 09:53S 07°09' E 112°40'0 0.0
2018-Aug-08 09:23S 07°09' E 112°40'0 0.0
2018-Aug-08 08:59S 07°09' E 112°40'0 0.0
2018-Aug-08 08:27S 07°09' E 112°40'0 0.0
2018-Aug-08 07:59S 07°09' E 112°40'0 0.0
2018-Aug-08 07:27S 07°09' E 112°40'0 0.0
2018-Aug-08 06:53S 07°09' E 112°40'0 0.0
2018-Aug-08 06:30S 07°09' E 112°40'0 0.4
2018-Aug-08 05:55S 07°09' E 112°40'0 0.5
2018-Aug-08 05:26S 07°09' E 112°40'1 1.5
2018-Aug-08 04:58S 07°09' E 112°40'1 1.3
2018-Aug-08 04:26S 07°09' E 112°40'0 0.0
2018-Aug-08 03:59S 07°09' E 112°40'1 1.1
2018-Aug-08 03:21S 07°09' E 112°40'1 1.4
2018-Aug-08 02:56S 07°09' E 112°40'1 3.0
2018-Aug-08 02:29S 07°08' E 112°39'0 0.4
2018-Aug-08 01:55S 07°08' E 112°39'0 0.8
2018-Aug-08 01:29S 07°07' E 112°39'2 3.9
2018-Aug-08 01:00S 07°09' E 112°40'0 0.1
2018-Aug-08 00:29S 07°09' E 112°40'0 0.0
2018-Aug-07 23:56S 07°09' E 112°40'0 0.0
2018-Aug-07 23:30S 07°09' E 112°40'0 0.0
2018-Aug-07 22:59S 07°09' E 112°40'0 0.0
2018-Aug-07 22:26S 07°09' E 112°40'0 0.0
2018-Aug-07 22:00S 07°09' E 112°40'0 0.0
2018-Aug-07 21:28S 07°09' E 112°40'0 0.0
2018-Aug-07 21:00S 07°09' E 112°40'0 0.0
2018-Aug-07 20:26S 07°09' E 112°40'0 0.0
2018-Aug-07 19:49S 07°09' E 112°40'0 0.0
2018-Aug-07 19:25S 07°09' E 112°40'0 0.0
2018-Aug-07 18:49S 07°09' E 112°40'0 0.0
2018-Aug-07 18:30S 07°09' E 112°40'0 0.0
2018-Aug-07 17:55S 07°09' E 112°40'0 0.0
2018-Aug-07 17:26S 07°09' E 112°40'0 0.0
2018-Aug-07 17:00S 07°09' E 112°40'0 0.0
2018-Aug-07 16:30S 07°09' E 112°40'0 0.0
2018-Aug-07 15:55S 07°09' E 112°40'0 0.0
2018-Aug-07 15:28S 07°09' E 112°40'0 0.0
2018-Aug-07 14:57S 07°09' E 112°40'3 3.5
2018-Aug-07 14:11S 07°07' E 112°39'0 0.6
2018-Aug-07 13:56S 07°06' E 112°39'0 1.0
2018-Aug-07 13:26S 07°07' E 112°39'0 0.8
2018-Aug-07 12:59S 07°07' E 112°39'1 2.3
2018-Aug-07 12:30S 07°08' E 112°39'2 2.9
2018-Aug-07 11:59S 07°09' E 112°40'0 0.0
2018-Aug-07 11:30S 07°09' E 112°40'0 0.0
2018-Aug-07 10:59S 07°09' E 112°40'0 0.0
2018-Aug-07 10:25S 07°09' E 112°40'1 1.3
2018-Aug-07 09:47S 07°08' E 112°40'0 0.2
2018-Aug-07 09:29S 07°08' E 112°39'1 1.6
2018-Aug-07 09:00S 07°09' E 112°40'0 0.0
2018-Aug-07 08:28S 07°09' E 112°40'0 0.0
2018-Aug-07 07:59S 07°09' E 112°40'0 0.0
2018-Aug-07 07:27S 07°09' E 112°40'0 0.0
2018-Aug-07 06:51S 07°09' E 112°40'0 0.0
2018-Aug-07 06:29S 07°09' E 112°40'0 0.0
2018-Aug-07 06:00S 07°09' E 112°40'0 0.0
2018-Aug-07 05:30S 07°09' E 112°40'0 0.0
2018-Aug-07 04:56S 07°09' E 112°40'0 0.0
2018-Aug-07 04:26S 07°09' E 112°40'0 0.4
2018-Aug-07 03:58S 07°09' E 112°40'0 0.5
2018-Aug-07 03:30S 07°09' E 112°40'0 0.0
2018-Aug-07 02:59S 07°09' E 112°40'0 0.1
2018-Aug-07 02:30S 07°09' E 112°40'0 0.0
2018-Aug-07 01:56S 07°09' E 112°40'0 0.0
2018-Aug-07 01:30S 07°09' E 112°40'0 0.0
2018-Aug-07 01:00S 07°09' E 112°40'0 0.0
2018-Aug-07 00:11S 07°09' E 112°40'0 0.0
2018-Aug-06 23:59S 07°09' E 112°40'0 0.0
2018-Aug-06 23:25S 07°09' E 112°40'0 0.0
2018-Aug-06 22:58S 07°09' E 112°40'0 0.0
2018-Aug-06 22:30S 07°09' E 112°40'0 0.0
2018-Aug-06 21:59S 07°09' E 112°40'0 0.0
2018-Aug-06 21:29S 07°09' E 112°40'0 0.0
2018-Aug-06 21:00S 07°09' E 112°40'0 0.0
2018-Aug-06 20:29S 07°09' E 112°40'0 0.0
2018-Aug-06 19:57S 07°09' E 112°40'0 0.0
2018-Aug-06 19:27S 07°09' E 112°40'0 0.0
2018-Aug-06 18:49S 07°09' E 112°40'0 0.0
2018-Aug-06 18:30S 07°09' E 112°40'0 0.0
2018-Aug-06 17:59S 07°09' E 112°40'0 0.0
2018-Aug-06 17:28S 07°09' E 112°40'0 0.0
2018-Aug-06 16:56S 07°09' E 112°40'0 0.0
2018-Aug-06 16:30S 07°09' E 112°40'0 0.0
2018-Aug-06 15:57S 07°09' E 112°40'0 0.0
2018-Aug-06 15:29S 07°09' E 112°40'0 0.0
2018-Aug-06 14:53S 07°09' E 112°40'2 4.4
2018-Aug-06 14:30S 07°08' E 112°39'1 2.2
2018-Aug-06 13:59S 07°07' E 112°39'0 0.3
2018-Aug-06 13:25S 07°06' E 112°39'1 1.5
2018-Aug-06 12:57S 07°07' E 112°39'2 5.0
2018-Aug-06 12:29S 07°09' E 112°40'0 0.1
2018-Aug-06 11:55S 07°09' E 112°40'0 0.0
2018-Aug-06 11:30S 07°09' E 112°40'0 0.0
2018-Aug-06 11:00S 07°09' E 112°40'0 0.0
2018-Aug-06 10:31S 07°09' E 112°40'0 0.0
2018-Aug-06 10:00S 07°09' E 112°40'0 0.0
2018-Aug-06 09:30S 07°09' E 112°40'2 3.6
2018-Aug-06 09:00S 07°07' E 112°39'0 0.2
2018-Aug-06 08:27S 07°07' E 112°39'2 4.3
2018-Aug-06 08:00S 07°09' E 112°40'0 0.1
2018-Aug-06 07:18S 07°09' E 112°40'0 0.2
2018-Aug-06 06:46S 07°09' E 112°40'0 0.4
2018-Aug-06 06:30S 07°09' E 112°40'0 0.1
2018-Aug-06 05:54S 07°09' E 112°40'0 0.0
2018-Aug-06 05:30S 07°09' E 112°40'0 0.0
2018-Aug-06 05:00S 07°09' E 112°40'0 0.0
2018-Aug-06 04:24S 07°09' E 112°40'0 0.0
2018-Aug-06 04:00S 07°09' E 112°40'0 0.0
2018-Aug-06 03:31S 07°09' E 112°40'0 0.0
2018-Aug-06 02:59S 07°09' E 112°40'0 0.0
2018-Aug-06 02:29S 07°09' E 112°40'0 0.0
2018-Aug-06 01:59S 07°09' E 112°40'0 0.0
2018-Aug-06 01:29S 07°09' E 112°40'2 2.1
2018-Aug-06 00:24S 07°07' E 112°39'2 3.6
2018-Aug-05 23:57S 07°09' E 112°40'3 6.6
2018-Aug-05 23:27S 07°05' E 112°39'0 0.0
2018-Aug-05 22:56S 07°05' E 112°39'0 0.7
2018-Aug-05 22:28S 07°05' E 112°39'1 1.8
2018-Aug-05 21:54S 07°06' E 112°40'3 5.9
2018-Aug-05 21:20S 07°09' E 112°40'0 0.0
2018-Aug-05 20:55S 07°09' E 112°40'0 0.0
2018-Aug-05 20:28S 07°09' E 112°40'0 0.0
2018-Aug-05 19:57S 07°09' E 112°40'0 0.0
2018-Aug-05 19:30S 07°09' E 112°40'0 0.0
2018-Aug-05 18:58S 07°09' E 112°40'0 0.0
2018-Aug-05 18:30S 07°09' E 112°40'0 0.0
2018-Aug-05 17:52S 07°09' E 112°40'0 0.0
2018-Aug-05 17:25S 07°09' E 112°40'0 0.0
2018-Aug-05 16:52S 07°09' E 112°40'  
Track history (hours):
 
Tides and Currents Weather Stations Pressure Air Temp Water Temp Dewpoint Dewpoint Depression Visibility Wind Speed Wind Dir Waves Ship Positions

Kt.kresna.315

Last reported at 2018-Aug-14 23:24 UTC. Time now 2018-Aug-14 23:41 UTC.
Position S 07°09' E 112°40'.

; draft 3 m.

Type: Tug. MMSI: 525023379.

Date/timePositionNaut miles runAvg speedWind from/ knotsBaromVisibWave heightAir tempDewpointWater temp
2018-Aug-14 23:24S 07°09' E 112°40'0 0.1
2018-Aug-14 22:49S 07°09' E 112°40'0 0.0
2018-Aug-14 22:23S 07°09' E 112°40'0 0.1
2018-Aug-14 21:59S 07°09' E 112°40'0 0.0
2018-Aug-14 21:28S 07°09' E 112°40'1 2.5
2018-Aug-14 21:00S 07°08' E 112°39'1 1.7
2018-Aug-14 20:30S 07°07' E 112°39'1 1.7
2018-Aug-14 19:44S 07°06' E 112°39'1 2.5
2018-Aug-14 19:26S 07°05' E 112°39'2 4.0
2018-Aug-14 19:00S 07°07' E 112°39'2 3.9
2018-Aug-14 18:26S 07°09' E 112°40'0 0.0
2018-Aug-14 17:59S 07°09' E 112°40'0 0.0
2018-Aug-14 17:28S 07°09' E 112°40'0 0.0
2018-Aug-14 16:59S 07°09' E 112°40'0 0.0
2018-Aug-14 16:29S 07°09' E 112°40'0 0.0
2018-Aug-14 15:56S 07°09' E 112°40'1 1.0
2018-Aug-14 15:23S 07°09' E 112°40'0 0.9
2018-Aug-14 14:52S 07°08' E 112°40'0 1.2
2018-Aug-14 14:27S 07°08' E 112°39'3 5.9
2018-Aug-14 14:00S 07°10' E 112°41'4 7.0
2018-Aug-14 13:29S 07°12' E 112°43'0 0.4
2018-Aug-14 12:55S 07°12' E 112°43'0 0.0
2018-Aug-14 12:30S 07°12' E 112°43'0 0.0
2018-Aug-14 12:00S 07°12' E 112°43'1 1.7
2018-Aug-14 11:29S 07°12' E 112°43'3 6.9
2018-Aug-14 11:00S 07°10' E 112°40'2 3.2
2018-Aug-14 10:30S 07°08' E 112°39'0 0.4
2018-Aug-14 10:00S 07°08' E 112°39'1 2.0
2018-Aug-14 09:29S 07°07' E 112°40'2 4.5
2018-Aug-14 09:00S 07°09' E 112°40'0 0.0
2018-Aug-14 08:30S 07°09' E 112°40'0 0.0
2018-Aug-14 07:57S 07°09' E 112°40'0 0.0
2018-Aug-14 07:29S 07°09' E 112°40'0 0.0
2018-Aug-14 07:00S 07°09' E 112°40'0 0.0
2018-Aug-14 06:30S 07°09' E 112°40'0 0.0
2018-Aug-14 05:56S 07°09' E 112°40'0 0.0
2018-Aug-14 05:30S 07°09' E 112°40'0 0.0
2018-Aug-14 04:56S 07°09' E 112°40'1 1.3
2018-Aug-14 04:28S 07°10' E 112°40'0 0.9
2018-Aug-14 03:59S 07°10' E 112°40'1 1.9
2018-Aug-14 03:27S 07°09' E 112°40'0 0.0
2018-Aug-14 03:00S 07°09' E 112°40'1 3.0
2018-Aug-14 02:30S 07°08' E 112°39'0 0.2
2018-Aug-14 01:59S 07°08' E 112°39'1 0.1
2018-Aug-13 18:25S 07°07' E 112°39'1 1.9
2018-Aug-13 17:58S 07°07' E 112°39'0 0.0
2018-Aug-13 17:30S 07°07' E 112°39'0 0.0
2018-Aug-13 17:00S 07°07' E 112°39'2 4.6
2018-Aug-13 16:30S 07°09' E 112°40'0 0.8
2018-Aug-13 15:59S 07°09' E 112°40'0 0.0
2018-Aug-13 15:30S 07°09' E 112°40'0 0.0
2018-Aug-13 14:59S 07°09' E 112°40'0 0.0
2018-Aug-13 14:30S 07°09' E 112°40'0 0.0
2018-Aug-13 14:00S 07°09' E 112°40'0 0.0
2018-Aug-13 13:29S 07°09' E 112°40'0 0.0
2018-Aug-13 13:00S 07°09' E 112°40'0 0.0
2018-Aug-13 12:29S 07°09' E 112°40'0 0.0
2018-Aug-13 12:00S 07°09' E 112°40'0 0.0
2018-Aug-13 11:30S 07°09' E 112°40'0 0.0
2018-Aug-13 11:00S 07°09' E 112°40'0 0.0
2018-Aug-13 10:30S 07°09' E 112°40'0 0.0
2018-Aug-13 10:00S 07°09' E 112°40'0 0.0
2018-Aug-13 09:29S 07°09' E 112°40'0 0.4
2018-Aug-13 08:55S 07°09' E 112°40'1 3.0
2018-Aug-13 08:28S 07°08' E 112°40'2 3.3
2018-Aug-13 07:58S 07°09' E 112°40'0 0.0
2018-Aug-13 07:29S 07°09' E 112°40'0 0.0
2018-Aug-13 06:59S 07°09' E 112°40'0 0.0
2018-Aug-13 06:30S 07°09' E 112°40'0 0.0
2018-Aug-13 05:59S 07°09' E 112°40'0 0.3
2018-Aug-13 05:29S 07°09' E 112°40'0 0.3
2018-Aug-13 05:00S 07°09' E 112°40'0 0.4
2018-Aug-13 04:28S 07°09' E 112°40'0 0.5
2018-Aug-13 03:50S 07°09' E 112°40'0 0.0
2018-Aug-13 03:29S 07°09' E 112°40'0 0.0
2018-Aug-13 03:00S 07°09' E 112°40'0 0.0
2018-Aug-13 02:30S 07°09' E 112°40'0 0.0
2018-Aug-13 01:56S 07°09' E 112°40'0 0.0
2018-Aug-13 01:25S 07°09' E 112°40'0 0.2
2018-Aug-13 00:58S 07°09' E 112°40'0 0.2
2018-Aug-13 00:30S 07°09' E 112°40'0 0.0
2018-Aug-12 23:59S 07°09' E 112°40'0 0.0
2018-Aug-12 23:29S 07°09' E 112°40'0 0.0
2018-Aug-12 22:58S 07°09' E 112°40'0 0.0
2018-Aug-12 22:28S 07°09' E 112°40'0 0.0
2018-Aug-12 21:57S 07°09' E 112°40'0 0.0
2018-Aug-12 21:30S 07°09' E 112°40'0 0.0
2018-Aug-12 20:58S 07°09' E 112°40'0 0.0
2018-Aug-12 20:27S 07°09' E 112°40'0 0.0
2018-Aug-12 19:57S 07°09' E 112°40'0 0.0
2018-Aug-12 19:28S 07°09' E 112°40'0 0.0
2018-Aug-12 18:59S 07°09' E 112°40'0 0.0
2018-Aug-12 18:29S 07°09' E 112°40'0 0.0
2018-Aug-12 17:58S 07°09' E 112°40'0 0.0
2018-Aug-12 17:29S 07°09' E 112°40'0 0.0
2018-Aug-12 16:53S 07°09' E 112°40'0 0.0
2018-Aug-12 16:30S 07°09' E 112°40'0 0.0
2018-Aug-12 16:00S 07°09' E 112°40'0 0.0
2018-Aug-12 15:29S 07°09' E 112°40'0 0.0
2018-Aug-12 14:59S 07°09' E 112°40'0 0.0
2018-Aug-12 14:27S 07°09' E 112°40'0 0.0
2018-Aug-12 14:00S 07°09' E 112°40'0 0.0
2018-Aug-12 13:30S 07°09' E 112°40'0 0.0
2018-Aug-12 12:59S 07°09' E 112°40'0 0.0
2018-Aug-12 12:29S 07°09' E 112°40'0 0.0
2018-Aug-12 12:00S 07°09' E 112°40'0 0.0
2018-Aug-12 11:28S 07°09' E 112°40'0 0.0
2018-Aug-12 10:44S 07°09' E 112°40'0 0.0
2018-Aug-12 10:13S 07°09' E 112°40'0 0.0
2018-Aug-12 09:59S 07°09' E 112°40'0 0.0
2018-Aug-12 09:26S 07°09' E 112°40'0 0.0
2018-Aug-12 08:58S 07°09' E 112°40'0 0.0
2018-Aug-12 08:30S 07°09' E 112°40'0 0.0
2018-Aug-12 08:00S 07°09' E 112°40'0 0.0
2018-Aug-12 07:30S 07°09' E 112°40'0 0.0
2018-Aug-12 07:00S 07°09' E 112°40'0 0.0
2018-Aug-12 06:28S 07°09' E 112°40'0 0.0
2018-Aug-12 05:59S 07°09' E 112°40'0 0.0
2018-Aug-12 05:30S 07°09' E 112°40'0 0.6
2018-Aug-12 04:59S 07°09' E 112°40'2 4.9
2018-Aug-12 04:30S 07°07' E 112°39'0 0.9
2018-Aug-12 03:58S 07°07' E 112°39'2 4.9
2018-Aug-12 03:29S 07°09' E 112°40'0 0.4
2018-Aug-12 03:00S 07°09' E 112°40'0 0.0
2018-Aug-12 02:29S 07°09' E 112°40'0 0.0
2018-Aug-12 02:00S 07°09' E 112°40'0 0.6
2018-Aug-12 01:29S 07°09' E 112°40'0 0.4
2018-Aug-12 00:59S 07°09' E 112°40'0 0.0
2018-Aug-12 00:30S 07°09' E 112°40'0 0.0
2018-Aug-11 23:57S 07°09' E 112°40'0 0.0
2018-Aug-11 23:30S 07°09' E 112°40'0 0.0
2018-Aug-11 22:50S 07°09' E 112°40'0 0.0
2018-Aug-11 22:30S 07°09' E 112°40'0 0.0
2018-Aug-11 21:59S 07°09' E 112°40'0 0.0
2018-Aug-11 21:23S 07°09' E 112°40'0 0.0
2018-Aug-11 21:00S 07°09' E 112°40'0 0.0
2018-Aug-11 20:26S 07°09' E 112°40'0 0.0
2018-Aug-11 19:56S 07°09' E 112°40'0 0.0
2018-Aug-11 19:22S 07°09' E 112°40'0 0.0
2018-Aug-11 18:51S 07°09' E 112°40'0 0.0
2018-Aug-11 18:10S 07°09' E 112°40'0 0.3
2018-Aug-11 17:56S 07°09' E 112°40'0 0.1
2018-Aug-11 17:21S 07°09' E 112°40'0 0.0
2018-Aug-11 16:57S 07°09' E 112°40'0 0.0
2018-Aug-11 16:21S 07°09' E 112°40'0 0.0
2018-Aug-11 15:57S 07°09' E 112°40'0 0.0
2018-Aug-11 15:28S 07°09' E 112°40'0 0.0
2018-Aug-11 14:58S 07°09' E 112°40'0 0.0
2018-Aug-11 14:30S 07°09' E 112°40'0 0.0
2018-Aug-11 14:00S 07°09' E 112°40'0 0.0
2018-Aug-11 13:28S 07°09' E 112°40'0 0.0
2018-Aug-11 13:00S 07°09' E 112°40'0 0.0
2018-Aug-11 12:29S 07°09' E 112°40'0 0.0
2018-Aug-11 11:59S 07°09' E 112°40'0 0.0
2018-Aug-11 11:26S 07°09' E 112°40'0 0.0
2018-Aug-11 10:57S 07°09' E 112°40'0 0.0
2018-Aug-11 10:18S 07°09' E 112°40'2 2.0
2018-Aug-11 09:03S 07°07' E 112°39'0 0.0
2018-Aug-11 08:59S 07°07' E 112°39'2 5.2
2018-Aug-11 08:30S 07°09' E 112°40'0 0.0
2018-Aug-11 03:46S 07°09' E 112°40'0 0.0
2018-Aug-11 02:41S 07°09' E 112°40'0 0.0
2018-Aug-11 02:25S 07°09' E 112°40'0 0.0
2018-Aug-11 01:57S 07°09' E 112°40'0 0.0
2018-Aug-11 01:29S 07°09' E 112°40'0 0.0
2018-Aug-11 00:57S 07°09' E 112°40'0 0.0
2018-Aug-11 00:28S 07°09' E 112°40'0 0.0
2018-Aug-10 23:15S 07°09' E 112°40'0 0.0
2018-Aug-10 22:55S 07°09' E 112°40'0 0.0
2018-Aug-10 22:15S 07°09' E 112°40'0 0.0
2018-Aug-10 22:00S 07°09' E 112°40'0 0.0
2018-Aug-10 21:30S 07°09' E 112°40'0 0.0
2018-Aug-10 20:55S 07°09' E 112°40'1 1.8
2018-Aug-10 20:27S 07°08' E 112°40'2 4.1
2018-Aug-10 19:58S 07°07' E 112°39'3 4.9
2018-Aug-10 19:25S 07°09' E 112°40'0 0.0
2018-Aug-10 18:59S 07°09' E 112°40'0 0.0
2018-Aug-10 17:39S 07°09' E 112°40'0 0.0
2018-Aug-10 17:23S 07°09' E 112°40'0 0.0
2018-Aug-10 16:59S 07°09' E 112°40'1 1.3
2018-Aug-10 16:26S 07°09' E 112°40'2 4.1
2018-Aug-10 15:55S 07°07' E 112°39'1 1.9
2018-Aug-10 15:30S 07°07' E 112°39'2 3.0
2018-Aug-10 14:51S 07°09' E 112°40'0 0.0
2018-Aug-10 14:25S 07°09' E 112°40'0 0.0
2018-Aug-10 13:53S 07°09' E 112°40'0 0.0
2018-Aug-10 13:30S 07°09' E 112°40'0 0.0
2018-Aug-10 12:57S 07°09' E 112°40'0 0.0
2018-Aug-10 12:30S 07°09' E 112°40'0 0.0
2018-Aug-10 11:56S 07°09' E 112°40'0 0.0
2018-Aug-10 11:26S 07°09' E 112°40'0 0.0
2018-Aug-10 10:59S 07°09' E 112°40'0 0.0
2018-Aug-10 10:29S 07°09' E 112°40'0 0.0
2018-Aug-10 10:00S 07°09' E 112°40'2 3.6
2018-Aug-10 09:29S 07°07' E 112°39'0 0.3
2018-Aug-10 08:52S 07°08' E 112°39'0 1.0
2018-Aug-10 08:28S 07°08' E 112°39'0 0.6
2018-Aug-10 07:59S 07°08' E 112°39'2 2.0
2018-Aug-10 07:08S 07°06' E 112°39'1 9.4
2018-Aug-10 06:59S 07°07' E 112°39'2 3.4
2018-Aug-10 06:22S 07°09' E 112°40'0 1.0
2018-Aug-10 06:00S 07°09' E 112°40'0 0.6
2018-Aug-10 05:28S 07°09' E 112°40'0 0.0
2018-Aug-10 04:57S 07°09' E 112°40'0 0.0
2018-Aug-10 04:28S 07°09' E 112°40'4 5.0
2018-Aug-10 03:44S 07°06' E 112°39'1 2.0
2018-Aug-10 03:11S 07°07' E 112°39'1 2.0
2018-Aug-10 02:46S 07°08' E 112°39'2 5.7
2018-Aug-10 02:28S 07°09' E 112°40'0 0.3
2018-Aug-10 01:58S 07°09' E 112°40'0 0.4
2018-Aug-10 01:24S 07°09' E 112°40'0 0.0
2018-Aug-10 01:00S 07°09' E 112°40'0 0.0
2018-Aug-10 00:30S 07°09' E 112°40'0 0.0
2018-Aug-09 23:59S 07°09' E 112°40'0 0.0
2018-Aug-09 23:29S 07°09' E 112°40'0 0.0
2018-Aug-09 22:59S 07°09' E 112°40'0 0.9
2018-Aug-09 22:28S 07°09' E 112°40'0 1.0
2018-Aug-09 22:00S 07°09' E 112°40'0 0.0
2018-Aug-09 21:26S 07°09' E 112°40'0 0.0
2018-Aug-09 20:56S 07°09' E 112°40'0 0.0
2018-Aug-09 20:21S 07°09' E 112°40'0 0.0
2018-Aug-09 20:00S 07°09' E 112°40'0 0.0
2018-Aug-09 19:29S 07°09' E 112°40'0 0.0
2018-Aug-09 19:00S 07°09' E 112°40'0 0.0
2018-Aug-09 18:30S 07°09' E 112°40'0 0.0
2018-Aug-09 17:51S 07°09' E 112°40'0 0.0
2018-Aug-09 17:30S 07°09' E 112°40'0 0.0
2018-Aug-09 17:00S 07°09' E 112°40'0 0.0
2018-Aug-09 16:30S 07°09' E 112°40'0 0.0
2018-Aug-09 15:59S 07°09' E 112°40'0 0.0
2018-Aug-09 15:30S 07°09' E 112°40'0 0.0
2018-Aug-09 15:00S 07°09' E 112°40'0 0.0
2018-Aug-09 14:29S 07°09' E 112°40'0 0.0
2018-Aug-09 14:00S 07°09' E 112°40'0 0.1
2018-Aug-09 13:29S 07°09' E 112°40'1 2.3
2018-Aug-09 13:00S 07°08' E 112°39'0 0.4
2018-Aug-09 12:29S 07°08' E 112°40'1 1.9
2018-Aug-09 12:00S 07°09' E 112°40'0 0.0
2018-Aug-09 11:24S 07°09' E 112°40'0 0.0
2018-Aug-09 10:58S 07°09' E 112°40'0 0.0
2018-Aug-09 10:27S 07°09' E 112°40'0 0.0
2018-Aug-09 10:00S 07°09' E 112°40'0 0.0
2018-Aug-09 09:30S 07°09' E 112°40'0 0.0
2018-Aug-09 08:56S 07°09' E 112°40'0 0.0
2018-Aug-09 08:30S 07°09' E 112°40'0 0.0
2018-Aug-09 07:59S 07°09' E 112°40'0 0.0
2018-Aug-09 07:29S 07°09' E 112°40'0 0.0
2018-Aug-09 06:57S 07°09' E 112°40'1 1.1
2018-Aug-09 06:29S 07°10' E 112°40'3 6.8
2018-Aug-09 05:59S 07°12' E 112°43'1 1.6
2018-Aug-09 05:27S 07°12' E 112°43'0 0.0
2018-Aug-09 04:56S 07°12' E 112°43'0 0.0
2018-Aug-09 04:26S 07°12' E 112°43'0 0.0
2018-Aug-09 03:54S 07°12' E 112°43'0 0.0
2018-Aug-09 03:25S 07°12' E 112°43'0 0.2
2018-Aug-09 02:59S 07°12' E 112°44'2 5.0
2018-Aug-09 02:30S 07°11' E 112°41'3 5.3
2018-Aug-09 01:57S 07°09' E 112°40'2 4.6
2018-Aug-09 01:30S 07°07' E 112°39'1 1.2
2018-Aug-09 00:55S 07°06' E 112°39'1 2.7
2018-Aug-09 00:29S 07°07' E 112°39'2 4.1
2018-Aug-08 23:59S 07°09' E 112°40'0 0.0
2018-Aug-08 23:27S 07°09' E 112°40'0 0.0
2018-Aug-08 23:00S 07°09' E 112°40'0 0.0
2018-Aug-08 22:28S 07°09' E 112°40'0 0.0
2018-Aug-08 21:58S 07°09' E 112°40'0 0.0
2018-Aug-08 21:29S 07°09' E 112°40'0 0.0
2018-Aug-08 21:00S 07°09' E 112°40'0 0.0
2018-Aug-08 20:30S 07°09' E 112°40'0 0.0
2018-Aug-08 20:00S 07°09' E 112°40'0 0.0
2018-Aug-08 19:30S 07°09' E 112°40'0 0.0
2018-Aug-08 19:00S 07°09' E 112°40'0 0.0
2018-Aug-08 18:29S 07°09' E 112°40'0 0.0
2018-Aug-08 17:53S 07°09' E 112°40'0 0.0
2018-Aug-08 17:30S 07°09' E 112°40'0 0.0
2018-Aug-08 17:00S 07°09' E 112°40'0 0.0
2018-Aug-08 16:20S 07°09' E 112°40'0 0.0
2018-Aug-08 16:00S 07°09' E 112°40'0 0.0
2018-Aug-08 15:21S 07°09' E 112°40'0 0.0
2018-Aug-08 14:53S 07°09' E 112°40'0 0.0
2018-Aug-08 14:27S 07°09' E 112°40'0 0.0
2018-Aug-08 13:59S 07°09' E 112°40'0 0.0
2018-Aug-08 13:29S 07°09' E 112°40'0 0.0
2018-Aug-08 13:00S 07°09' E 112°40'0 0.2
2018-Aug-08 12:29S 07°09' E 112°40'1 1.9
2018-Aug-08 12:00S 07°08' E 112°39'1 1.7
2018-Aug-08 11:27S 07°09' E 112°40'0 0.0
2018-Aug-08 10:59S 07°09' E 112°40'0 0.0
2018-Aug-08 10:30S 07°09' E 112°40'0 0.0
2018-Aug-08 09:53S 07°09' E 112°40'0 0.0
2018-Aug-08 09:23S 07°09' E 112°40'0 0.0
2018-Aug-08 08:59S 07°09' E 112°40'0 0.0
2018-Aug-08 08:27S 07°09' E 112°40'0 0.0
2018-Aug-08 07:59S 07°09' E 112°40'0 0.0
2018-Aug-08 07:27S 07°09' E 112°40'0 0.0
2018-Aug-08 06:53S 07°09' E 112°40'0 0.0
2018-Aug-08 06:30S 07°09' E 112°40'0 0.4
2018-Aug-08 05:55S 07°09' E 112°40'0 0.5
2018-Aug-08 05:26S 07°09' E 112°40'1 1.5
2018-Aug-08 04:58S 07°09' E 112°40'1 1.3
2018-Aug-08 04:26S 07°09' E 112°40'0 0.0
2018-Aug-08 03:59S 07°09' E 112°40'1 1.1
2018-Aug-08 03:21S 07°09' E 112°40'1 1.4
2018-Aug-08 02:56S 07°09' E 112°40'1 3.0
2018-Aug-08 02:29S 07°08' E 112°39'0 0.4
2018-Aug-08 01:55S 07°08' E 112°39'0 0.8
2018-Aug-08 01:29S 07°07' E 112°39'2 3.9
2018-Aug-08 01:00S 07°09' E 112°40'0 0.1
2018-Aug-08 00:29S 07°09' E 112°40'0 0.0
2018-Aug-07 23:56S 07°09' E 112°40'0 0.0
2018-Aug-07 23:30S 07°09' E 112°40'0 0.0
2018-Aug-07 22:59S 07°09' E 112°40'0 0.0
2018-Aug-07 22:26S 07°09' E 112°40'0 0.0
2018-Aug-07 22:00S 07°09' E 112°40'0 0.0
2018-Aug-07 21:28S 07°09' E 112°40'0 0.0
2018-Aug-07 21:00S 07°09' E 112°40'0 0.0
2018-Aug-07 20:26S 07°09' E 112°40'0 0.0
2018-Aug-07 19:49S 07°09' E 112°40'0 0.0
2018-Aug-07 19:25S 07°09' E 112°40'0 0.0
2018-Aug-07 18:49S 07°09' E 112°40'0 0.0
2018-Aug-07 18:30S 07°09' E 112°40'0 0.0
2018-Aug-07 17:55S 07°09' E 112°40'0 0.0
2018-Aug-07 17:26S 07°09' E 112°40'0 0.0
2018-Aug-07 17:00S 07°09' E 112°40'0 0.0
2018-Aug-07 16:30S 07°09' E 112°40'0 0.0
2018-Aug-07 15:55S 07°09' E 112°40'0 0.0
2018-Aug-07 15:28S 07°09' E 112°40'0 0.0
2018-Aug-07 14:57S 07°09' E 112°40'3 3.5
2018-Aug-07 14:11S 07°07' E 112°39'0 0.6
2018-Aug-07 13:56S 07°06' E 112°39'0 1.0
2018-Aug-07 13:26S 07°07' E 112°39'0 0.8
2018-Aug-07 12:59S 07°07' E 112°39'1 2.3
2018-Aug-07 12:30S 07°08' E 112°39'2 2.9
2018-Aug-07 11:59S 07°09' E 112°40'0 0.0
2018-Aug-07 11:30S 07°09' E 112°40'0 0.0
2018-Aug-07 10:59S 07°09' E 112°40'0 0.0
2018-Aug-07 10:25S 07°09' E 112°40'1 1.3
2018-Aug-07 09:47S 07°08' E 112°40'0 0.2
2018-Aug-07 09:29S 07°08' E 112°39'1 1.6
2018-Aug-07 09:00S 07°09' E 112°40'0 0.0
2018-Aug-07 08:28S 07°09' E 112°40'0 0.0
2018-Aug-07 07:59S 07°09' E 112°40'0 0.0
2018-Aug-07 07:27S 07°09' E 112°40'0 0.0
2018-Aug-07 06:51S 07°09' E 112°40'0 0.0
2018-Aug-07 06:29S 07°09' E 112°40'0 0.0
2018-Aug-07 06:00S 07°09' E 112°40'0 0.0
2018-Aug-07 05:30S 07°09' E 112°40'0 0.0
2018-Aug-07 04:56S 07°09' E 112°40'0 0.0
2018-Aug-07 04:26S 07°09' E 112°40'0 0.4
2018-Aug-07 03:58S 07°09' E 112°40'0 0.5
2018-Aug-07 03:30S 07°09' E 112°40'0 0.0
2018-Aug-07 02:59S 07°09' E 112°40'0 0.1
2018-Aug-07 02:30S 07°09' E 112°40'0 0.0
2018-Aug-07 01:56S 07°09' E 112°40'0 0.0
2018-Aug-07 01:30S 07°09' E 112°40'0 0.0
2018-Aug-07 01:00S 07°09' E 112°40'0 0.0
2018-Aug-07 00:11S 07°09' E 112°40'0 0.0
2018-Aug-06 23:59S 07°09' E 112°40'0 0.0
2018-Aug-06 23:25S 07°09' E 112°40'0 0.0
2018-Aug-06 22:58S 07°09' E 112°40'0 0.0
2018-Aug-06 22:30S 07°09' E 112°40'0 0.0
2018-Aug-06 21:59S 07°09' E 112°40'0 0.0
2018-Aug-06 21:29S 07°09' E 112°40'0 0.0
2018-Aug-06 21:00S 07°09' E 112°40'0 0.0
2018-Aug-06 20:29S 07°09' E 112°40'0 0.0
2018-Aug-06 19:57S 07°09' E 112°40'0 0.0
2018-Aug-06 19:27S 07°09' E 112°40'0 0.0
2018-Aug-06 18:49S 07°09' E 112°40'0 0.0
2018-Aug-06 18:30S 07°09' E 112°40'0 0.0
2018-Aug-06 17:59S 07°09' E 112°40'0 0.0
2018-Aug-06 17:28S 07°09' E 112°40'0 0.0
2018-Aug-06 16:56S 07°09' E 112°40'0 0.0
2018-Aug-06 16:30S 07°09' E 112°40'0 0.0
2018-Aug-06 15:57S 07°09' E 112°40'0 0.0
2018-Aug-06 15:29S 07°09' E 112°40'0 0.0
2018-Aug-06 14:53S 07°09' E 112°40'2 4.4
2018-Aug-06 14:30S 07°08' E 112°39'1 2.2
2018-Aug-06 13:59S 07°07' E 112°39'0 0.3
2018-Aug-06 13:25S 07°06' E 112°39'1 1.5
2018-Aug-06 12:57S 07°07' E 112°39'2 5.0
2018-Aug-06 12:29S 07°09' E 112°40'0 0.1
2018-Aug-06 11:55S 07°09' E 112°40'0 0.0
2018-Aug-06 11:30S 07°09' E 112°40'0 0.0
2018-Aug-06 11:00S 07°09' E 112°40'0 0.0
2018-Aug-06 10:31S 07°09' E 112°40'0 0.0
2018-Aug-06 10:00S 07°09' E 112°40'0 0.0
2018-Aug-06 09:30S 07°09' E 112°40'2 3.6
2018-Aug-06 09:00S 07°07' E 112°39'0 0.2
2018-Aug-06 08:27S 07°07' E 112°39'2 4.3
2018-Aug-06 08:00S 07°09' E 112°40'0 0.1
2018-Aug-06 07:18S 07°09' E 112°40'0 0.2
2018-Aug-06 06:46S 07°09' E 112°40'0 0.4
2018-Aug-06 06:30S 07°09' E 112°40'0 0.1
2018-Aug-06 05:54S 07°09' E 112°40'0 0.0
2018-Aug-06 05:30S 07°09' E 112°40'0 0.0
2018-Aug-06 05:00S 07°09' E 112°40'0 0.0
2018-Aug-06 04:24S 07°09' E 112°40'0 0.0
2018-Aug-06 04:00S 07°09' E 112°40'0 0.0
2018-Aug-06 03:31S 07°09' E 112°40'0 0.0
2018-Aug-06 02:59S 07°09' E 112°40'0 0.0
2018-Aug-06 02:29S 07°09' E 112°40'0 0.0
2018-Aug-06 01:59S 07°09' E 112°40'0 0.0
2018-Aug-06 01:29S 07°09' E 112°40'2 2.1
2018-Aug-06 00:24S 07°07' E 112°39'2 3.6
2018-Aug-05 23:57S 07°09' E 112°40'3 6.6
2018-Aug-05 23:27S 07°05' E 112°39'0 0.0
2018-Aug-05 22:56S 07°05' E 112°39'0 0.7
2018-Aug-05 22:28S 07°05' E 112°39'1 1.8
2018-Aug-05 21:54S 07°06' E 112°40'3 5.9
2018-Aug-05 21:20S 07°09' E 112°40'0 0.0
2018-Aug-05 20:55S 07°09' E 112°40'0 0.0
2018-Aug-05 20:28S 07°09' E 112°40'0 0.0
2018-Aug-05 19:57S 07°09' E 112°40'0 0.0
2018-Aug-05 19:30S 07°09' E 112°40'0 0.0
2018-Aug-05 18:58S 07°09' E 112°40'0 0.0
2018-Aug-05 18:30S 07°09' E 112°40'0 0.0
2018-Aug-05 17:52S 07°09' E 112°40'0 0.0
2018-Aug-05 17:25S 07°09' E 112°40'0 0.0
2018-Aug-05 16:52S 07°09' E 112°40'  

Dump ship's entire track history